Time;durP1;ratioP1;P1;durP2;ratioP2;P2;SDS_P1;SDS_P2;PMS_P1;PMS_P2;Temp;Humidity;BMP_temperature;BMP_pressure;BME280_temperature;BME280_humidity;BME280_pressure;Samples;Min_cycle;Max_cycle;Signal;HPM_P1;HPM_P2
2024/03/20 00:01:12;;;;;;;4.17;2.53;;;;;;;;;;6236873;28;20075;-89
2024/03/20 00:04:12;;;;;;;4.70;2.77;;;;;;;;;;6231892;28;20542;-89
2024/03/20 00:07:13;;;;;;;3.90;2.63;;;;;;;;;;6252139;28;20097;-89
2024/03/20 00:10:13;;;;;;;5.00;2.83;;;;;;;;;;6235299;28;20037;-90
2024/03/20 00:13:13;;;;;;;3.40;2.73;;;;;;;;;;6249109;28;20026;-88
2024/03/20 00:16:14;;;;;;;4.37;2.87;;;;;;;;;;6237656;28;20026;-88
2024/03/20 00:19:14;;;;;;;4.00;2.50;;;;;;;;;;6250149;28;20422;-88
2024/03/20 00:22:15;;;;;;;6.03;2.60;;;;;;;;;;6234352;28;20029;-89
2024/03/20 00:25:15;;;;;;;3.67;2.73;;;;;;;;;;6238864;28;20025;-89
2024/03/20 00:28:15;;;;;;;3.80;2.43;;;;;;;;;;6239910;28;20044;-89
2024/03/20 00:31:16;;;;;;;3.90;2.50;;;;;;;;;;6250732;28;20478;-89
2024/03/20 00:34:17;;;;;;;3.10;2.50;;;;;;;;;;6232151;28;20062;-89
2024/03/20 00:37:17;;;;;;;3.95;2.45;;;;;;;;;;6250309;28;20095;-89
2024/03/20 00:40:18;;;;;;;4.17;2.93;;;;;;;;;;6223146;28;20029;-89
2024/03/20 00:43:18;;;;;;;5.23;2.77;;;;;;;;;;6206852;28;20014;-89
2024/03/20 00:46:19;;;;;;;3.87;2.40;;;;;;;;;;6240774;28;20044;-89
2024/03/20 00:49:19;;;;;;;5.20;2.50;;;;;;;;;;6246882;28;20017;-89
2024/03/20 00:52:20;;;;;;;4.10;2.30;;;;;;;;;;6262083;28;20434;-90
2024/03/20 00:55:20;;;;;;;2.93;2.40;;;;;;;;;;6255953;28;20498;-89
2024/03/20 00:58:20;;;;;;;4.20;2.80;;;;;;;;;;6256033;28;20065;-89
2024/03/20 01:01:21;;;;;;;3.97;2.57;;;;;;;;;;6239676;28;20021;-90
2024/03/20 01:04:21;;;;;;;3.60;2.53;;;;;;;;;;6248674;28;20047;-89
2024/03/20 01:07:21;;;;;;;3.83;2.60;;;;;;;;;;6236375;28;20033;-89
2024/03/20 01:10:22;;;;;;;3.23;2.47;;;;;;;;;;6227124;28;20113;-90
2024/03/20 01:13:22;;;;;;;3.77;2.43;;;;;;;;;;6246556;28;20540;-89
2024/03/20 01:16:28;;;;;;;3.60;2.70;;;;;;;;;;6231109;28;20037;-89
2024/03/20 01:19:28;;;;;;;4.43;2.85;;;;;;;;;;6228587;28;20025;-89
2024/03/20 01:22:31;;;;;;;3.40;2.50;;;;;;;;;;6247969;28;20475;-89
2024/03/20 01:25:32;;;;;;;3.88;2.53;;;;;;;;;;6230384;28;20037;-88
2024/03/20 01:28:32;;;;;;;4.60;2.67;;;;;;;;;;6252596;28;20025;-88
2024/03/20 01:31:32;;;;;;;4.33;2.63;;;;;;;;;;6255870;28;20033;-88
2024/03/20 01:34:33;;;;;;;3.73;2.47;;;;;;;;;;6225866;28;20353;-90
2024/03/20 01:37:34;;;;;;;3.35;2.50;;;;;;;;;;6217712;28;20116;-89
2024/03/20 01:40:34;;;;;;;3.67;2.83;;;;;;;;;;6248398;28;20032;-90
2024/03/20 01:43:36;;;;;;;3.77;2.50;;;;;;;;;;6248889;28;20387;-88
2024/03/20 01:46:37;;;;;;;3.22;2.30;;;;;;;;;;6221481;28;20031;-89
2024/03/20 01:49:37;;;;;;;4.47;2.58;;;;;;;;;;6227389;28;20391;-88
2024/03/20 01:52:49;;;;;;;3.97;2.47;;;;;;;;;;6247859;28;20075;-88
2024/03/20 01:55:50;;;;;;;3.95;3.03;;;;;;;;;;6231063;28;20017;-88
2024/03/20 01:58:51;;;;;;;5.30;3.00;;;;;;;;;;6231446;28;20036;-89
2024/03/20 02:01:52;;;;;;;3.60;2.42;;;;;;;;;;6250611;28;20013;-90
2024/03/20 02:04:52;;;;;;;3.90;2.43;;;;;;;;;;6233254;28;20040;-89
2024/03/20 02:07:53;;;;;;;5.43;2.70;;;;;;;;;;6251871;28;20026;-89
2024/03/20 02:10:54;;;;;;;4.20;2.88;;;;;;;;;;6247825;28;20116;-89
2024/03/20 02:13:55;;;;;;;3.30;2.53;;;;;;;;;;6252716;28;20467;-88
2024/03/20 02:16:55;;;;;;;3.78;2.58;;;;;;;;;;6235651;28;20109;-89
2024/03/20 02:19:56;;;;;;;3.77;2.50;;;;;;;;;;6277619;28;20017;-90
2024/03/20 02:22:58;;;;;;;3.17;2.30;;;;;;;;;;6265938;28;20026;-91
2024/03/20 02:25:58;;;;;;;3.85;2.53;;;;;;;;;;6229269;28;20021;-88
2024/03/20 02:28:58;;;;;;;3.30;2.27;;;;;;;;;;6218673;28;20032;-88
2024/03/20 02:31:58;;;;;;;4.03;2.70;;;;;;;;;;6250536;28;20029;-89
2024/03/20 02:34:59;;;;;;;3.33;2.17;;;;;;;;;;6234805;28;20133;-90
2024/03/20 02:37:59;;;;;;;4.67;2.60;;;;;;;;;;6252266;28;20033;-89
2024/03/20 02:41:00;;;;;;;3.70;2.60;;;;;;;;;;6209323;28;20372;-89
2024/03/20 02:44:00;;;;;;;3.67;2.63;;;;;;;;;;6231943;28;20124;-89
2024/03/20 02:47:00;;;;;;;2.70;2.20;;;;;;;;;;6232248;28;20557;-90
2024/03/20 02:50:01;;;;;;;3.50;2.33;;;;;;;;;;6252779;28;20029;-90
2024/03/20 02:53:04;;;;;;;3.30;2.43;;;;;;;;;;6238305;28;20372;-90
2024/03/20 02:56:04;;;;;;;3.03;2.42;;;;;;;;;;6251482;28;20071;-90
2024/03/20 02:59:04;;;;;;;3.10;2.17;;;;;;;;;;6233719;28;20021;-89
2024/03/20 03:02:05;;;;;;;4.13;2.47;;;;;;;;;;6224787;28;20085;-90
2024/03/20 03:05:05;;;;;;;3.80;2.80;;;;;;;;;;6240551;28;20024;-90
2024/03/20 03:08:05;;;;;;;2.73;2.30;;;;;;;;;;6251855;28;20083;-89
2024/03/20 03:11:06;;;;;;;4.03;2.47;;;;;;;;;;6275931;28;20047;-90
2024/03/20 03:14:06;;;;;;;2.93;2.43;;;;;;;;;;6258955;28;20029;-90
2024/03/20 03:17:06;;;;;;;3.67;2.73;;;;;;;;;;6250148;28;20024;-89
2024/03/20 03:20:14;;;;;;;3.20;2.43;;;;;;;;;;6232493;28;20489;-90
2024/03/20 03:23:14;;;;;;;4.13;2.92;;;;;;;;;;6228579;28;20030;-90
2024/03/20 03:26:14;;;;;;;3.17;2.40;;;;;;;;;;6222779;28;20079;-89
2024/03/20 03:29:15;;;;;;;5.40;2.53;;;;;;;;;;6249455;28;20595;-89
2024/03/20 03:32:15;;;;;;;3.83;2.70;;;;;;;;;;6227212;28;20021;-91
2024/03/20 03:35:15;;;;;;;3.63;2.53;;;;;;;;;;6225854;28;20078;-90
2024/03/20 03:38:16;;;;;;;2.73;2.07;;;;;;;;;;6230672;28;20506;-89
2024/03/20 03:41:16;;;;;;;3.63;2.40;;;;;;;;;;6246656;28;20040;-90
2024/03/20 03:44:16;;;;;;;3.73;2.60;;;;;;;;;;6221213;28;20018;-90
2024/03/20 03:47:17;;;;;;;4.63;2.40;;;;;;;;;;6246908;28;20037;-90
2024/03/20 03:50:17;;;;;;;2.60;2.13;;;;;;;;;;6209207;28;20065;-90
2024/03/20 03:53:18;;;;;;;3.60;2.28;;;;;;;;;;6224851;28;20018;-89
2024/03/20 03:56:18;;;;;;;4.10;2.77;;;;;;;;;;6228939;28;20109;-89
2024/03/20 03:59:18;;;;;;;3.87;2.53;;;;;;;;;;6231777;28;20475;-89
2024/03/20 04:02:19;;;;;;;3.60;2.33;;;;;;;;;;6239875;28;20013;-89
2024/03/20 04:05:19;;;;;;;4.20;2.47;;;;;;;;;;6249697;28;20056;-90
2024/03/20 04:08:19;;;;;;;2.80;1.97;;;;;;;;;;6240727;28;20052;-89
2024/03/20 04:11:23;;;;;;;3.57;2.60;;;;;;;;;;6233389;28;20533;-89
2024/03/20 04:14:24;;;;;;;3.17;2.40;;;;;;;;;;6230982;28;20037;-89
2024/03/20 04:17:24;;;;;;;4.57;2.47;;;;;;;;;;6230379;28;20033;-89
2024/03/20 04:20:27;;;;;;;3.30;2.47;;;;;;;;;;6227944;28;20435;-89
2024/03/20 04:23:27;;;;;;;3.08;2.55;;;;;;;;;;6230758;28;20124;-88
2024/03/20 04:26:28;;;;;;;4.93;2.42;;;;;;;;;;6231592;28;20513;-89
2024/03/20 04:29:28;;;;;;;3.67;2.47;;;;;;;;;;6250723;28;20037;-89
2024/03/20 04:32:29;;;;;;;3.37;2.47;;;;;;;;;;6244482;28;20325;-89
2024/03/20 04:35:29;;;;;;;3.88;2.22;;;;;;;;;;6227531;28;20041;-89
2024/03/20 04:38:29;;;;;;;4.97;2.47;;;;;;;;;;6222506;28;20033;-89
2024/03/20 04:41:30;;;;;;;3.50;2.27;;;;;;;;;;6220612;28;20049;-90
2024/03/20 04:44:30;;;;;;;3.57;2.30;;;;;;;;;;6200733;28;20405;-90
2024/03/20 04:47:30;;;;;;;4.47;2.50;;;;;;;;;;6197997;28;20037;-89
2024/03/20 04:50:30;;;;;;;3.00;2.33;;;;;;;;;;6206938;28;20495;-91
2024/03/20 04:53:31;;;;;;;3.23;2.37;;;;;;;;;;6222160;28;20030;-91
2024/03/20 04:56:31;;;;;;;5.10;2.63;;;;;;;;;;6222757;28;20018;-90
2024/03/20 04:59:31;;;;;;;3.63;2.30;;;;;;;;;;6224290;28;20010;-90
2024/03/20 05:02:32;;;;;;;2.87;2.23;;;;;;;;;;6222662;28;20073;-90
2024/03/20 05:05:32;;;;;;;3.63;2.00;;;;;;;;;;6218214;28;20508;-90
2024/03/20 05:08:33;;;;;;;3.30;2.30;;;;;;;;;;6212930;28;20026;-90
2024/03/20 05:11:33;;;;;;;3.60;2.22;;;;;;;;;;6217948;28;20030;-90
2024/03/20 05:14:34;;;;;;;3.73;2.23;;;;;;;;;;6214447;28;20052;-90
2024/03/20 05:17:34;;;;;;;3.57;2.60;;;;;;;;;;6219346;28;20121;-91
2024/03/20 05:20:34;;;;;;;3.43;2.13;;;;;;;;;;6214631;28;20495;-90
2024/03/20 05:23:34;;;;;;;3.37;2.27;;;;;;;;;;6201940;28;20022;-89
2024/03/20 05:26:35;;;;;;;3.13;2.40;;;;;;;;;;6202396;28;20476;-89
2024/03/20 05:29:35;;;;;;;4.33;2.43;;;;;;;;;;6200390;28;20480;-88
2024/03/20 05:32:36;;;;;;;3.10;2.43;;;;;;;;;;6221514;28;20033;-89
2024/03/20 05:35:36;;;;;;;3.27;2.40;;;;;;;;;;6235612;28;20518;-88
2024/03/20 05:38:36;;;;;;;3.40;2.30;;;;;;;;;;6229101;28;20030;-88
2024/03/20 05:41:37;;;;;;;3.07;2.37;;;;;;;;;;6254066;28;20490;-89
2024/03/20 05:44:38;;;;;;;3.03;2.20;;;;;;;;;;6234901;28;20022;-89
2024/03/20 05:47:38;;;;;;;4.13;2.73;;;;;;;;;;6230608;28;20483;-89
2024/03/20 05:50:38;;;;;;;5.23;3.37;;;;;;;;;;6226935;28;20026;-89
2024/03/20 05:53:39;;;;;;;3.90;2.97;;;;;;;;;;6225074;28;20022;-89
2024/03/20 05:56:39;;;;;;;3.87;2.80;;;;;;;;;;6228277;28;20028;-91
2024/03/20 05:59:39;;;;;;;3.53;2.63;;;;;;;;;;6235711;28;20037;-91
2024/03/20 06:02:43;;;;;;;3.73;2.27;;;;;;;;;;6243712;28;20017;-89
2024/03/20 06:05:44;;;;;;;4.53;2.72;;;;;;;;;;6253308;28;20044;-89
2024/03/20 06:08:44;;;;;;;4.70;2.70;;;;;;;;;;6233353;28;20030;-90
2024/03/20 06:11:44;;;;;;;5.37;2.73;;;;;;;;;;6211239;28;20030;-91
2024/03/20 06:14:45;;;;;;;4.97;3.03;;;;;;;;;;6224025;28;20025;-90
2024/03/20 06:17:45;;;;;;;4.33;2.83;;;;;;;;;;6252988;28;20026;-91
2024/03/20 06:20:45;;;;;;;2.97;2.20;;;;;;;;;;6235499;28;20037;-92
2024/03/20 06:23:46;;;;;;;3.53;2.57;;;;;;;;;;6226669;28;20449;-91
2024/03/20 06:26:46;;;;;;;4.50;2.80;;;;;;;;;;6215719;28;20490;-93
2024/03/20 06:29:50;;;;;;;4.43;2.80;;;;;;;;;;6235850;28;20083;-92
2024/03/20 06:32:51;;;;;;;4.70;2.35;;;;;;;;;;6241307;28;20048;-93
2024/03/20 06:35:51;;;;;;;5.30;2.57;;;;;;;;;;6234736;28;20084;-90
2024/03/20 06:38:51;;;;;;;3.83;2.67;;;;;;;;;;6225740;28;20022;-93
2024/03/20 06:41:52;;;;;;;4.23;2.57;;;;;;;;;;6223408;28;20475;-91
2024/03/20 06:44:52;;;;;;;3.87;2.50;;;;;;;;;;6226005;28;20117;-91
2024/03/20 06:47:52;;;;;;;4.07;2.70;;;;;;;;;;6233408;28;20511;-91
2024/03/20 06:50:53;;;;;;;3.60;2.70;;;;;;;;;;6220972;28;20164;-92
2024/03/20 06:53:53;;;;;;;5.23;2.90;;;;;;;;;;6220200;28;20053;-90
2024/03/20 06:56:58;;;;;;;3.77;2.93;;;;;;;;;;6222109;28;20014;-90
2024/03/20 06:59:58;;;;;;;3.78;2.80;;;;;;;;;;6220566;28;20018;-95
2024/03/20 07:03:00;;;;;;;5.23;3.33;;;;;;;;;;6216566;28;20028;-92
2024/03/20 07:06:00;;;;;;;5.55;3.00;;;;;;;;;;6225795;28;20438;-94
2024/03/20 07:09:03;;;;;;;4.23;2.83;;;;;;;;;;6233430;28;20038;-93
2024/03/20 07:12:04;;;;;;;4.63;3.05;;;;;;;;;;6216486;28;20077;-93
2024/03/20 07:15:07;;;;;;;4.30;2.77;;;;;;;;;;6217133;28;20130;-90
2024/03/20 07:18:08;;;;;;;4.57;3.15;;;;;;;;;;6222604;28;20046;-89
2024/03/20 07:21:08;;;;;;;4.33;3.03;;;;;;;;;;6219183;28;20028;-90
2024/03/20 07:24:08;;;;;;;5.27;3.73;;;;;;;;;;6218780;28;20488;-90
2024/03/20 07:27:09;;;;;;;5.47;3.33;;;;;;;;;;6205848;28;20289;-89
2024/03/20 07:30:10;;;;;;;6.00;3.77;;;;;;;;;;6223449;28;20057;-89
2024/03/20 07:33:11;;;;;;;5.63;3.85;;;;;;;;;;6223324;28;20498;-89
2024/03/20 07:36:11;;;;;;;5.50;3.70;;;;;;;;;;6233940;28;20050;-89
2024/03/20 07:39:11;;;;;;;4.53;3.73;;;;;;;;;;6222869;28;20025;-90
2024/03/20 07:42:12;;;;;;;6.30;3.87;;;;;;;;;;6233728;28;20535;-89
2024/03/20 07:45:12;;;;;;;6.47;4.17;;;;;;;;;;6224813;28;20026;-89
2024/03/20 07:48:12;;;;;;;5.00;3.90;;;;;;;;;;6237453;28;20029;-89
2024/03/20 07:51:17;;;;;;;5.57;3.83;;;;;;;;;;6245344;28;20386;-88
2024/03/20 07:54:24;;;;;;;7.25;4.30;;;;;;;;;;6227252;28;20026;-89
2024/03/20 07:57:25;;;;;;;6.60;4.20;;;;;;;;;;6218410;28;20017;-90
2024/03/20 08:00:28;;;;;;;5.93;4.15;;;;;;;;;;6251052;28;20056;-90
2024/03/20 08:03:28;;;;;;;5.75;4.20;;;;;;;;;;6229142;28;20031;-90
2024/03/20 08:06:29;;;;;;;5.17;4.17;;;;;;;;;;6241244;28;20026;-90
2024/03/20 08:09:29;;;;;;;5.27;3.87;;;;;;;;;;5868945;28;10000402;-90
2024/03/20 08:12:29;;;;;;;7.00;4.07;;;;;;;;;;6247588;28;20180;-90
2024/03/20 08:15:30;;;;;;;5.10;4.23;;;;;;;;;;6243735;28;20026;-91
2024/03/20 08:18:31;;;;;;;6.23;4.53;;;;;;;;;;6207129;28;20053;-90
2024/03/20 08:21:32;;;;;;;6.20;4.18;;;;;;;;;;6236221;28;20025;-90
2024/03/20 08:24:37;;;;;;;9.27;4.33;;;;;;;;;;6226297;28;20092;-89
2024/03/20 08:27:37;;;;;;;5.97;4.13;;;;;;;;;;6224118;28;20063;-90
2024/03/20 08:30:40;;;;;;;6.63;4.33;;;;;;;;;;6249797;28;20321;-90
2024/03/20 08:33:41;;;;;;;7.68;4.93;;;;;;;;;;6253283;28;20047;-90
2024/03/20 08:36:41;;;;;;;7.20;4.60;;;;;;;;;;6250005;28;20522;-90
2024/03/20 08:39:41;;;;;;;6.67;4.47;;;;;;;;;;6250846;28;20116;-90
2024/03/20 08:42:42;;;;;;;6.17;4.27;;;;;;;;;;6250150;28;20044;-90
2024/03/20 08:45:42;;;;;;;5.68;3.85;;;;;;;;;;6253673;28;20044;-90
2024/03/20 08:48:43;;;;;;;4.93;3.30;;;;;;;;;;6232657;28;20404;-90
2024/03/20 08:51:43;;;;;;;5.20;3.93;;;;;;;;;;6234776;28;20148;-90
2024/03/20 08:54:44;;;;;;;5.43;4.13;;;;;;;;;;6231795;28;20403;-89
2024/03/20 08:57:44;;;;;;;4.90;4.03;;;;;;;;;;6238779;28;20050;-88
2024/03/20 09:00:46;;;;;;;5.40;3.73;;;;;;;;;;6249148;28;20018;-88
2024/03/20 09:03:46;;;;;;;5.10;3.95;;;;;;;;;;6247017;28;20033;-89
2024/03/20 09:06:47;;;;;;;5.80;4.13;;;;;;;;;;6224888;28;20621;-89
2024/03/20 09:09:48;;;;;;;;;;;;;;;;;;6218647;28;20033;-90
2024/03/20 09:12:48;;;;;;;5.43;3.40;;;;;;;;;;6233423;28;19910;-90
2024/03/20 09:15:48;;;;;;;5.43;4.03;;;;;;;;;;6230346;28;20029;-90
2024/03/20 09:18:48;;;;;;;5.17;4.20;;;;;;;;;;6247465;28;20443;-90
2024/03/20 09:21:49;;;;;;;5.10;4.10;;;;;;;;;;6247035;28;20025;-89
2024/03/20 09:24:49;;;;;;;6.07;4.23;;;;;;;;;;6248519;28;20033;-89
2024/03/20 09:27:49;;;;;;;8.50;3.90;;;;;;;;;;6231736;28;20059;-90
2024/03/20 09:30:50;;;;;;;4.90;3.90;;;;;;;;;;6243149;28;20463;-90
2024/03/20 09:33:50;;;;;;;4.70;4.13;;;;;;;;;;6204442;28;20030;-89
2024/03/20 09:36:52;;;;;;;5.87;4.20;;;;;;;;;;6222924;28;20074;-89
2024/03/20 09:39:53;;;;;;;5.43;3.75;;;;;;;;;;6216261;28;20072;-90
2024/03/20 09:42:54;;;;;;;5.68;3.92;;;;;;;;;;6222790;28;20463;-90
2024/03/20 09:45:55;;;;;;;5.38;4.05;;;;;;;;;;6238355;28;20491;-90
2024/03/20 09:48:56;;;;;;;5.03;3.70;;;;;;;;;;6246499;28;20029;-92
2024/03/20 09:51:56;;;;;;;5.18;4.10;;;;;;;;;;6230384;28;20029;-90
2024/03/20 09:54:57;;;;;;;4.83;3.63;;;;;;;;;;6232264;28;20116;-90
2024/03/20 09:57:57;;;;;;;4.80;3.60;;;;;;;;;;6242154;28;20533;-90
2024/03/20 10:00:57;;;;;;;6.70;4.23;;;;;;;;;;6228631;28;20026;-90
2024/03/20 10:04:04;;;;;;;5.50;3.73;;;;;;;;;;6230665;28;20037;-90
2024/03/20 10:07:12;;;;;;;5.15;3.97;;;;;;;;;;6222739;28;20030;-94
2024/03/20 10:10:13;;;;;;;5.00;3.67;;;;;;;;;;6230990;28;20032;-89
2024/03/20 10:13:14;;;;;;;4.45;3.55;;;;;;;;;;6226917;28;20503;-92
2024/03/20 10:16:14;;;;;;;4.87;3.87;;;;;;;;;;6239034;28;20030;-91
2024/03/20 10:19:15;;;;;;;5.13;4.05;;;;;;;;;;6239623;28;20292;-90
2024/03/20 10:22:15;;;;;;;4.47;3.70;;;;;;;;;;6220425;28;20030;-90
2024/03/20 10:25:16;;;;;;;5.50;4.07;;;;;;;;;;6235128;28;20026;-91
2024/03/20 10:28:19;;;;;;;5.60;3.80;;;;;;;;;;5899498;28;9999932;-90
2024/03/20 10:31:20;;;;;;;6.75;4.38;;;;;;;;;;6276038;28;20024;-90
2024/03/20 10:34:21;;;;;;;6.78;4.00;;;;;;;;;;6255309;28;20054;-91
2024/03/20 10:37:22;;;;;;;5.72;4.22;;;;;;;;;;6235819;28;20061;-91
2024/03/20 10:40:26;;;;;;;4.60;3.85;;;;;;;;;;6209678;28;20021;-91
2024/03/20 10:43:27;;;;;;;5.88;4.25;;;;;;;;;;6248718;28;20438;-90
2024/03/20 10:46:28;;;;;;;7.07;3.90;;;;;;;;;;6251697;28;20025;-88
2024/03/20 10:49:29;;;;;;;4.75;3.80;;;;;;;;;;6253722;28;20048;-91
2024/03/20 10:52:29;;;;;;;5.03;3.87;;;;;;;;;;6242982;28;20022;-88
2024/03/20 10:55:29;;;;;;;4.47;3.63;;;;;;;;;;6234756;28;20116;-91
2024/03/20 10:58:30;;;;;;;5.70;3.67;;;;;;;;;;6233575;28;20387;-91
2024/03/20 11:01:30;;;;;;;7.13;3.57;;;;;;;;;;6251307;28;20483;-88
2024/03/20 11:04:39;;;;;;;5.97;3.77;;;;;;;;;;6236395;28;20013;-90
2024/03/20 11:07:40;;;;;;;4.70;3.58;;;;;;;;;;6274583;28;20021;-90
2024/03/20 11:10:49;;;;;;;4.90;4.10;;;;;;;;;;6233222;28;20027;-90
2024/03/20 11:13:51;;;;;;;4.47;3.22;;;;;;;;;;6250285;28;20109;-90
2024/03/20 11:16:54;;;;;;;4.53;3.67;;;;;;;;;;6232770;28;20025;-90
2024/03/20 11:19:56;;;;;;;6.85;4.22;;;;;;;;;;6225187;28;20492;-88
2024/03/20 11:22:57;;;;;;;4.65;3.38;;;;;;;;;;6241728;28;20024;-88
2024/03/20 11:25:57;;;;;;;4.17;3.20;;;;;;;;;;6248411;28;20075;-89
2024/03/20 11:28:59;;;;;;;4.27;3.37;;;;;;;;;;6250201;28;20742;-88
2024/03/20 11:31:59;;;;;;;4.63;3.67;;;;;;;;;;6230928;28;20021;-88
2024/03/20 11:34:59;;;;;;;4.80;3.90;;;;;;;;;;6245991;28;20120;-88
2024/03/20 11:38:01;;;;;;;4.22;3.65;;;;;;;;;;6242784;28;20509;-89
2024/03/20 11:41:02;;;;;;;5.03;3.53;;;;;;;;;;6243037;28;20111;-88
2024/03/20 11:44:02;;;;;;;5.73;3.57;;;;;;;;;;6230848;28;20029;-88
2024/03/20 11:47:03;;;;;;;5.05;3.42;;;;;;;;;;6242924;28;20331;-88
2024/03/20 11:50:03;;;;;;;3.63;3.30;;;;;;;;;;6229351;28;20102;-88
2024/03/20 11:53:04;;;;;;;5.77;4.07;;;;;;;;;;6228771;28;20022;-89
2024/03/20 11:56:05;;;;;;;5.65;3.75;;;;;;;;;;6232546;28;20550;-89
2024/03/20 11:59:07;;;;;;;4.68;3.80;;;;;;;;;;6248848;28;20082;-92
2024/03/20 12:02:09;;;;;;;5.70;3.45;;;;;;;;;;6229409;28;20022;-89
2024/03/20 12:05:10;;;;;;;5.32;3.50;;;;;;;;;;6215718;28;20032;-88
2024/03/20 12:08:14;;;;;;;5.75;3.85;;;;;;;;;;6227428;28;20022;-89
2024/03/20 12:11:14;;;;;;;4.18;3.38;;;;;;;;;;6233040;28;20053;-89
2024/03/20 12:14:15;;;;;;;4.50;3.53;;;;;;;;;;6241236;28;20017;-89
2024/03/20 12:17:15;;;;;;;5.50;3.80;;;;;;;;;;6248562;28;20112;-90
2024/03/20 12:20:16;;;;;;;4.63;3.53;;;;;;;;;;6246783;28;20028;-89
2024/03/20 12:23:16;;;;;;;4.77;3.33;;;;;;;;;;6246565;28;20029;-88
2024/03/20 12:26:22;;;;;;;5.60;3.50;;;;;;;;;;6248616;28;20479;-89
2024/03/20 12:29:22;;;;;;;5.47;3.78;;;;;;;;;;6231765;28;20430;-90
2024/03/20 12:32:23;;;;;;;4.47;3.90;;;;;;;;;;6240068;28;20021;-90
2024/03/20 12:35:23;;;;;;;4.23;3.40;;;;;;;;;;6248533;28;20080;-90
2024/03/20 12:38:23;;;;;;;4.43;3.47;;;;;;;;;;6245623;28;20480;-90
2024/03/20 12:41:25;;;;;;;4.77;3.47;;;;;;;;;;6249090;28;20193;-89
2024/03/20 12:44:25;;;;;;;;;;;;;;;;;;6236776;28;21368;-90
2024/03/20 12:47:25;;;;;;;3.35;2.72;;;;;;;;;;6232099;28;20363;-90
2024/03/20 12:50:47;;;;;;;5.63;3.50;;;;;;;;;;6211978;28;20491;-90
2024/03/20 12:53:50;;;;;;;5.30;3.58;;;;;;;;;;6215572;28;20025;-89
2024/03/20 12:56:50;;;;;;;4.65;3.92;;;;;;;;;;6222982;28;20037;-89
2024/03/20 12:59:51;;;;;;;5.43;3.37;;;;;;;;;;6208760;28;20018;-89
2024/03/20 13:02:54;;;;;;;5.53;3.95;;;;;;;;;;6244158;28;20159;-89
2024/03/20 13:05:57;;;;;;;6.38;4.43;;;;;;;;;;6247121;28;20132;-88
2024/03/20 13:09:00;;;;;;;6.43;4.22;;;;;;;;;;6244676;28;20021;-88
2024/03/20 13:12:01;;;;;;;4.82;3.85;;;;;;;;;;6226945;28;20094;-87
2024/03/20 13:15:05;;;;;;;6.22;4.38;;;;;;;;;;6225155;28;20029;-89
2024/03/20 13:18:25;;;;;;;4.93;3.60;;;;;;;;;;6221899;28;20033;-87
2024/03/20 13:21:29;;;;;;;4.50;3.40;;;;;;;;;;6242691;28;20036;-88
2024/03/20 13:24:32;;;;;;;4.63;3.42;;;;;;;;;;6255965;28;20021;-90
2024/03/20 13:27:33;;;;;;;5.32;3.92;;;;;;;;;;6246422;28;20029;-88
2024/03/20 13:30:33;;;;;;;4.63;3.90;;;;;;;;;;6207811;28;20018;-90
2024/03/20 13:33:34;;;;;;;6.70;4.07;;;;;;;;;;6228463;28;20486;-89
2024/03/20 13:36:35;;;;;;;5.70;4.30;;;;;;;;;;6221930;28;20454;-88
2024/03/20 13:39:44;;;;;;;4.88;3.95;;;;;;;;;;6226296;28;20391;-89
2024/03/20 13:42:59;;;;;;;7.85;3.95;;;;;;;;;;6223160;28;20049;-93
2024/03/20 13:46:02;;;;;;;5.50;4.28;;;;;;;;;;6219651;28;20113;-89
2024/03/20 13:49:02;;;;;;;6.38;4.85;;;;;;;;;;6214483;28;20030;-88
2024/03/20 13:52:03;;;;;;;5.68;4.55;;;;;;;;;;6221790;28;20081;-89
2024/03/20 13:55:03;;;;;;;7.03;4.43;;;;;;;;;;6215942;28;20037;-88
2024/03/20 13:58:04;;;;;;;5.47;4.18;;;;;;;;;;6241371;23;20028;-75
2024/03/20 14:01:04;;;;;;;6.68;4.68;;;;;;;;;;6276831;28;20033;-75
2024/03/20 14:04:06;;;;;;;4.97;4.03;;;;;;;;;;6274648;28;20039;-76
2024/03/20 14:07:06;;;;;;;6.32;4.72;;;;;;;;;;6271827;28;20166;-75
2024/03/20 14:10:07;;;;;;;5.40;4.53;;;;;;;;;;6276611;28;20029;-75
2024/03/20 14:13:11;;;;;;;6.78;4.75;;;;;;;;;;6277015;28;20036;-75
2024/03/20 14:16:12;;;;;;;7.47;4.72;;;;;;;;;;6273964;28;20061;-75
2024/03/20 14:19:12;;;;;;;5.57;4.40;;;;;;;;;;6274687;28;20029;-75
2024/03/20 14:22:13;;;;;;;6.27;4.77;;;;;;;;;;6273707;28;20142;-75
2024/03/20 14:25:19;;;;;;;6.97;4.70;;;;;;;;;;6274422;28;20435;-75
2024/03/20 14:28:19;;;;;;;5.55;4.60;;;;;;;;;;6275912;28;20028;-74
2024/03/20 14:31:19;;;;;;;6.00;4.97;;;;;;;;;;6275389;28;20428;-74
2024/03/20 14:34:20;;;;;;;5.72;4.40;;;;;;;;;;6272863;28;20420;-74
2024/03/20 14:37:22;;;;;;;6.47;4.75;;;;;;;;;;6275485;28;20036;-78
2024/03/20 14:40:24;;;;;;;6.68;5.00;;;;;;;;;;6272484;28;20377;-79
2024/03/20 14:43:25;;;;;;;8.52;5.25;;;;;;;;;;6273692;28;20075;-78
2024/03/20 14:46:25;;;;;;;5.83;4.37;;;;;;;;;;6265560;28;20473;-79
2024/03/20 14:49:28;;;;;;;7.60;4.87;;;;;;;;;;6273565;28;20488;-78
2024/03/20 14:52:28;;;;;;;6.97;5.07;;;;;;;;;;6273594;28;20043;-78
2024/03/20 14:55:29;;;;;;;5.90;4.90;;;;;;;;;;6275400;28;20571;-78
2024/03/20 14:58:29;;;;;;;;;;;;;;;;;;6270377;28;20049;-78
2024/03/20 15:01:31;;;;;;;5.45;3.85;;;;;;;;;;6274793;28;20269;-78
2024/03/20 15:04:31;;;;;;;5.97;4.13;;;;;;;;;;6259847;28;20032;-78
2024/03/20 15:07:32;;;;;;;6.53;4.43;;;;;;;;;;6274817;28;20028;-78
2024/03/20 15:10:32;;;;;;;5.95;4.38;;;;;;;;;;6272330;28;20021;-77
2024/03/20 15:13:33;;;;;;;7.55;4.55;;;;;;;;;;6273325;28;20420;-77
2024/03/20 15:16:33;;;;;;;6.23;4.50;;;;;;;;;;6274571;28;20389;-78
2024/03/20 15:19:34;;;;;;;5.63;4.17;;;;;;;;;;6273634;28;20017;-78
2024/03/20 15:22:34;;;;;;;5.40;4.40;;;;;;;;;;6274620;28;20104;-78
2024/03/20 15:25:34;;;;;;;4.83;3.83;;;;;;;;;;6275524;28;20388;-78
2024/03/20 15:28:35;;;;;;;4.53;3.90;;;;;;;;;;6273390;28;20017;-78
2024/03/20 15:31:37;;;;;;;5.38;4.03;;;;;;;;;;6254329;28;20029;-77
2024/03/20 15:34:37;;;;;;;4.68;3.85;;;;;;;;;;6272662;28;20400;-78
2024/03/20 15:37:37;;;;;;;13.00;5.00;;;;;;;;;;6273109;28;20120;-78
2024/03/20 15:40:38;;;;;;;5.37;3.83;;;;;;;;;;6271710;28;20465;-78
2024/03/20 15:43:38;;;;;;;6.70;4.53;;;;;;;;;;6272540;28;20461;-75
2024/03/20 15:46:38;;;;;;;5.87;4.30;;;;;;;;;;6274428;28;20488;-76
2024/03/20 15:49:39;;;;;;;5.13;4.13;;;;;;;;;;6272508;28;20062;-76
2024/03/20 15:52:39;;;;;;;6.73;4.03;;;;;;;;;;6273381;28;20119;-76
2024/03/20 15:55:40;;;;;;;6.82;4.07;;;;;;;;;;6274320;28;20025;-76
2024/03/20 15:58:40;;;;;;;5.80;3.97;;;;;;;;;;6271176;28;20049;-76
2024/03/20 16:01:41;;;;;;;4.88;4.18;;;;;;;;;;6272363;28;20029;-76
2024/03/20 16:04:41;;;;;;;5.00;3.67;;;;;;;;;;6270018;28;20032;-76
2024/03/20 16:07:50;;;;;;;5.35;4.07;;;;;;;;;;6270517;28;20520;-76
2024/03/20 16:10:51;;;;;;;5.45;3.53;;;;;;;;;;6273179;28;20025;-76
2024/03/20 16:13:51;;;;;;;4.75;4.25;;;;;;;;;;6254192;28;20029;-76
2024/03/20 16:16:51;;;;;;;6.17;4.53;;;;;;;;;;6268864;28;20484;-76
2024/03/20 16:19:52;;;;;;;5.23;3.70;;;;;;;;;;6266727;28;20401;-76
2024/03/20 16:22:54;;;;;;;6.67;3.67;;;;;;;;;;6271171;28;20099;-76
2024/03/20 16:25:54;;;;;;;4.35;3.63;;;;;;;;;;6271421;28;20497;-76
2024/03/20 16:28:54;;;;;;;5.23;4.30;;;;;;;;;;6271240;28;20029;-76
2024/03/20 16:31:55;;;;;;;6.73;4.07;;;;;;;;;;6258355;28;20037;-77
2024/03/20 16:34:55;;;;;;;6.17;3.80;;;;;;;;;;6270687;28;20031;-76
2024/03/20 16:37:55;;;;;;;5.03;3.53;;;;;;;;;;6269557;28;20021;-76
2024/03/20 16:40:55;;;;;;;4.60;3.83;;;;;;;;;;6268509;28;20021;-76
2024/03/20 16:43:56;;;;;;;5.70;3.73;;;;;;;;;;6267674;28;20446;-76
2024/03/20 16:46:56;;;;;;;5.57;3.33;;;;;;;;;;6270851;28;20560;-77
2024/03/20 16:49:56;;;;;;;4.80;3.53;;;;;;;;;;6272649;28;20509;-76
2024/03/20 16:52:57;;;;;;;5.03;3.80;;;;;;;;;;6272746;28;20512;-76
2024/03/20 16:55:57;;;;;;;5.90;4.30;;;;;;;;;;6273217;28;20017;-76
2024/03/20 16:58:57;;;;;;;4.50;4.03;;;;;;;;;;6272556;28;20099;-75
2024/03/20 17:01:58;;;;;;;4.30;3.67;;;;;;;;;;6272672;28;20099;-76
2024/03/20 17:04:59;;;;;;;11.43;4.15;;;;;;;;;;6272168;28;20377;-75
2024/03/20 17:07:59;;;;;;;5.05;3.88;;;;;;;;;;6272498;28;20064;-76
2024/03/20 17:11:01;;;;;;;5.00;3.50;;;;;;;;;;6273156;28;20036;-76
2024/03/20 17:14:01;;;;;;;;;;;;;;;;;;6272706;28;20021;-76
2024/03/20 17:17:01;;;;;;;3.83;2.97;;;;;;;;;;6271814;28;19912;-76
2024/03/20 17:20:02;;;;;;;4.30;3.40;;;;;;;;;;6272651;28;20021;-75
2024/03/20 17:23:02;;;;;;;6.03;3.70;;;;;;;;;;6272526;28;20539;-76
2024/03/20 17:26:02;;;;;;;4.93;3.47;;;;;;;;;;6272376;28;20055;-75
2024/03/20 17:29:02;;;;;;;5.87;4.20;;;;;;;;;;6262856;28;20022;-76
2024/03/20 17:32:03;;;;;;;4.43;3.77;;;;;;;;;;6248132;28;20107;-76
2024/03/20 17:35:03;;;;;;;5.18;3.85;;;;;;;;;;6254469;28;20104;-76
2024/03/20 17:38:04;;;;;;;6.10;4.20;;;;;;;;;;6276922;28;20087;-76
2024/03/20 17:41:04;;;;;;;4.90;3.90;;;;;;;;;;6277638;28;20048;-76
2024/03/20 17:44:04;;;;;;;6.77;4.30;;;;;;;;;;6277062;28;20032;-75
2024/03/20 17:47:04;;;;;;;5.07;4.23;;;;;;;;;;6275894;28;20021;-76
2024/03/20 17:50:06;;;;;;;5.40;4.47;;;;;;;;;;6276895;28;20025;-76
2024/03/20 17:53:06;;;;;;;5.53;4.18;;;;;;;;;;6286548;28;20021;-76
2024/03/20 17:56:08;;;;;;;4.83;3.60;;;;;;;;;;6302159;28;20024;-76
2024/03/20 17:59:09;;;;;;;5.80;4.18;;;;;;;;;;6293805;28;20048;-76
2024/03/20 18:02:10;;;;;;;5.63;4.40;;;;;;;;;;6258437;28;20086;-76
2024/03/20 18:05:10;;;;;;;4.38;3.97;;;;;;;;;;6276460;28;20111;-74